John C. Munro Hamilton International Airport
CYHM : now visible

Airfield :











YOU CAN JOIN US ON...

 
LOGIN :

Register | Disclaimer

   EN    FR    IT 

 









Legend :    VFR   Marginal VFR   IFR   Intensive IFR   Very Intensive IFR
Visi :
Ceiling :
>= 8 km
>= 3000ft
5 to 8 km
1000 to 3000 ft
1500m to 5 km
500 to 1000 ft
800 to 1500m
200 to 500 ft
< 800m
< 200 ft
Symbols :   Thunderstorms  Fog  Heavy snow  Heavy precipitations  Wind > 20 kt






- Airport Elevation : 780 ft
- IATA code : YHM


CYHM - John C. Munro Hamilton International

CURRENT METAR :
  • 041900Z 00000KT 12SM BKN026TCU BKN064 BKN100 25/20 A2982 RMK TCU4SC1AC2 SLP098 DENSITY ALT 2300FT

EXPIRED METARs :
  • 041800Z VRB03KT 12SM FEW013 BKN021 BKN120 23/19 A2984 RMK CU4SC2AC1 SLP105 DENSITY ALT 2000FT
  • 041727Z 11003KT 060V180 12SM SCT012 BKN025 BKN077 BKN110 23/20 A2985 RMK CU3SC2AC1AC1 SLP108 DENSITY ALT 2000FT
  • 041700Z VRB02KT 12SM -SHRA BKN014 BKN026 BKN075 22/19 A2986 RMK CU6SC1AC1 AC TR SLP112 DENSITY ALT 1800FT
  • 041650Z 09003KT 020V110 12SM BKN011 BKN026 OVC110 21/19 A2986 RMK CF6CU2AC1 SLP112 DENSITY ALT 1800FT

TAF AMD TAF CYHM
Valid from the 04 at 19:00 until the 05 at 18:00 UTC


041935Z 0419/0518 22005KT P6SM BKN030 BKN060
TEMPO 0419/0421 VRB15G25KT 2SM TSRA BR BKN020CB OVC040
FM042100 25005KT P6SM BKN030 BKN080
TEMPO 0421/0501 P6SM -SHRA OVC020
PROB30 0421/0501 VRB15G25KT 2SM TSRA BR BKN020CB OVC040
FM050100 27008KT P6SM FEW015 BKN040
FM050800 27006KT P6SM FEW010
FM051400 27010KT P6SM SCT030 RMK NXT FCST BY 050000Z
CZYZ FIR / North America



MET'MAP, your aeronautical weather chart ! - Copyright ORBIFLY December 2007 - Disclaimer

ORBIFLY MET'MAP TEAM :

Programming & Development : Alexandra Zaïnal
Concept & original design : Baudouin d'Aumeries
Assistance for programming : Marc-Olivier Méhu
Technical & hardware support : Manuel Goepfert

Contact : metmap@orbifly.com




SOURCES & CREDITS :

   NOAA       Earth
Advisory